Airfield :
LOGIN :

Register | Disclaimer

   EN    FR    IT 

 










Legend :    VFR   Marginal VFR   IFR   Intensive IFR   Very Intensive IFR
Visi :
Ceiling :
>= 8 km
>= 3000ft
5 to 8 km
1000 to 3000 ft
1500m to 5 km
500 to 1000 ft
800 to 1500m
200 to 500 ft
< 800m
< 200 ft
Symbols :   Thunderstorms  Fog  Heavy snow  Heavy precipitations  Wind > 20 kt
SIGMETs :     Misc.  Thunderstorms  Icing  Turbulence  Mountain Waves  Volcanic Ashes






- Airport Elevation : -13 ft
- IATA code : LEY


EHLE - Lelystad

CURRENT METAR :
  • 131725Z AUTO 17008KT 9999 // FEW015CB 06/05 Q1000 RE// TEMPO 25012KT 6000 SHRA SCT020CB

EXPIRED METARs :
  • 131655Z AUTO 21008KT 9999 // FEW015CB BKN041 OVC045 06/04 Q1000 RE// TEMPO 25012KT 6000 SHRA SCT020CB
  • 131625Z AUTO 22008KT 9999 // FEW015CB SCT026 BKN033 BKN040 06/05 Q0999 RE// TEMPO 25012KT 6000 SHRA SCT020CB
  • 131555Z AUTO 21011KT 9999 // FEW015CB SCT025 BKN037 06/05 Q0999 RE// TEMPO 25012KT 6000 SHRA SCT020CB
  • 131525Z AUTO 19010KT 9999 // FEW026 06/05 Q0999 RE// TEMPO 25012KT 6000 SHRA SCT020CB
  • 131455Z AUTO 18007KT 9999 // NSC 06/05 Q0999 RE// TEMPO 25012KT 6000 SHRA SCT020CB

TAF TAF EHLE
Valid from the 13 at 12:00 until the 14 at 18:00 UTC


131109Z 1312/1418 24010KT 9999 SCT030
TEMPO 1312/1320 6000 -SHRA FEW015 SCT025CB
PROB30
TEMPO 1312/1316 29010G20KT 4000 SHRAGS SCT012 SCT020CB
BECMG 1313/1316 20007KT
PROB30 1322/1403 6000 BKN007
BECMG 1404/1407 12010KT
PROB30
TEMPO 1411/1415 7000 -RADZ
BECMG 1414/1417 09005KT



MET'MAP, your aeronautical weather chart ! - Copyright ORBIFLY December 2007 - Disclaimer

ORBIFLY MET'MAP TEAM :

Programming & Development : Alexandra Zaïnal
Concept & Development : Baudouin d'Aumeries
Co-Development & Prog : Marc-Olivier Méhu
Technical & hardware support : Manuel Goepfert

Contact : metmap@orbifly.com




SOURCES & CREDITS :

   NOAA